createdAt,value
2023-01-22T00:01:05.819Z,10.75
2023-01-22T00:03:32.333Z,11.38
2023-01-22T00:05:58.946Z,12.77
2023-01-22T00:08:25.469Z,11.82
2023-01-22T00:10:53.529Z,12.45
2023-01-22T00:13:21.549Z,10.90
2023-01-22T00:15:48.718Z,12.38
2023-01-22T00:18:15.350Z,12.70
2023-01-22T00:20:45.966Z,14.50
2023-01-22T00:23:12.589Z,14.10
2023-01-22T00:25:39.132Z,11.93
2023-01-22T00:28:06.676Z,14.15
2023-01-22T00:30:33.313Z,14.52
2023-01-22T00:33:00.029Z,14.00
2023-01-22T00:35:26.618Z,9.57
2023-01-22T00:37:53.172Z,15.07
2023-01-22T00:40:20.146Z,13.57
2023-01-22T00:42:46.760Z,11.98
2023-01-22T00:45:14.445Z,12.13
2023-01-22T00:47:41.357Z,12.07
2023-01-22T00:50:08.922Z,12.55
2023-01-22T00:52:35.479Z,12.93
2023-01-22T00:55:01.950Z,12.52
2023-01-22T00:57:28.450Z,12.27
2023-01-22T00:59:55.032Z,14.20
2023-01-22T01:02:21.669Z,9.38
2023-01-22T01:04:48.211Z,12.88
2023-01-22T01:07:14.772Z,11.43
2023-01-22T01:09:41.299Z,12.93
2023-01-22T01:12:07.907Z,13.35
2023-01-22T01:14:34.470Z,9.40
2023-01-22T01:17:01.034Z,13.32
2023-01-22T01:19:27.557Z,13.57
2023-01-22T01:21:54.135Z,9.50
2023-01-22T01:24:20.686Z,13.73
2023-01-22T01:26:47.394Z,12.13
2023-01-22T01:29:13.904Z,12.57
2023-01-22T01:31:40.417Z,12.52
2023-01-22T01:34:07.035Z,12.35
2023-01-22T01:36:48.363Z,12.13
2023-01-22T01:41:42.320Z,10.75
2023-01-22T01:44:17.589Z,10.38
2023-01-22T01:46:46.702Z,11.07
2023-01-22T01:49:38.239Z,11.07
2023-01-22T01:52:08.983Z,10.93
2023-01-22T01:54:36.719Z,11.85
2023-01-22T01:57:14.591Z,12.25
2023-01-22T01:59:42.734Z,10.13
2023-01-22T02:02:09.325Z,8.90
2023-01-22T02:04:35.945Z,11.45
2023-01-22T02:07:04.405Z,10.98
2023-01-22T02:09:31.434Z,11.90
2023-01-22T02:11:58.253Z,12.50
2023-01-22T02:14:30.839Z,11.15
2023-01-22T02:17:12.510Z,11.80
2023-01-22T02:19:40.500Z,9.50
2023-01-22T02:22:27.295Z,11.05
2023-01-22T02:24:54.136Z,9.70
2023-01-22T02:27:20.691Z,11.25
2023-01-22T02:29:47.233Z,9.95
2023-01-22T02:32:13.809Z,11.35
2023-01-22T02:34:40.569Z,11.80
2023-01-22T02:37:07.092Z,10.27
2023-01-22T02:39:33.760Z,9.55
2023-01-22T02:42:03.462Z,10.18
2023-01-22T02:44:29.994Z,10.27
2023-01-22T02:46:56.663Z,10.38
2023-01-22T02:49:23.326Z,12.23
2023-01-22T02:51:49.883Z,10.13
2023-01-22T02:54:16.371Z,9.25
2023-01-22T02:56:42.955Z,10.63
2023-01-22T02:59:09.629Z,10.02
2023-01-22T03:01:36.219Z,10.70
2023-01-22T03:04:04.728Z,9.15
2023-01-22T03:06:31.186Z,10.95
2023-01-22T03:09:00.160Z,9.65
2023-01-22T03:11:29.980Z,10.32
2023-01-22T03:13:57.072Z,13.32
2023-01-22T03:16:24.204Z,11.27
2023-01-22T03:18:50.677Z,10.38
2023-01-22T03:21:17.249Z,9.90
2023-01-22T03:23:46.856Z,10.32
2023-01-22T03:26:13.912Z,10.05
2023-01-22T03:28:40.447Z,10.40
2023-01-22T03:31:07.659Z,11.45
2023-01-22T03:33:34.813Z,11.07
2023-01-22T03:36:06.754Z,11.32
2023-01-22T03:38:33.355Z,11.48
2023-01-22T03:41:08.898Z,10.93
2023-01-22T03:43:35.691Z,10.35
2023-01-22T03:46:12.064Z,10.20
2023-01-22T03:48:39.509Z,11.32
2023-01-22T03:51:08.731Z,8.98
2023-01-22T03:53:35.402Z,11.55
2023-01-22T03:56:04.826Z,10.52
2023-01-22T03:58:32.229Z,9.27
2023-01-22T04:01:02.097Z,8.90
2023-01-22T04:03:29.460Z,10.10
2023-01-22T04:05:56.101Z,11.05
2023-01-22T04:08:22.760Z,9.73
2023-01-22T04:10:49.285Z,10.65
2023-01-22T04:13:15.762Z,10.20
2023-01-22T04:15:45.587Z,11.20
2023-01-22T04:18:12.893Z,11.35
2023-01-22T04:20:39.986Z,10.40
2023-01-22T04:23:07.673Z,11.25
2023-01-22T04:25:35.206Z,10.98
2023-01-22T04:28:02.065Z,9.98
2023-01-22T04:30:28.748Z,11.93
2023-01-22T04:32:55.328Z,10.95
2023-01-22T04:35:22.231Z,10.65
2023-01-22T04:37:48.826Z,9.30
2023-01-22T04:40:15.647Z,10.88
2023-01-22T04:42:42.215Z,8.68
2023-01-22T04:45:09.593Z,8.60
2023-01-22T04:47:40.549Z,10.20
2023-01-22T04:50:07.521Z,11.10
2023-01-22T04:52:34.101Z,9.88
2023-01-22T04:55:00.617Z,10.82
2023-01-22T04:57:27.155Z,8.98
2023-01-22T04:59:53.646Z,9.30
2023-01-22T05:02:20.160Z,10.50
2023-01-22T05:04:46.702Z,10.68
2023-01-22T05:07:13.256Z,10.95
2023-01-22T05:09:39.757Z,11.13
2023-01-22T05:12:06.445Z,10.23
2023-01-22T05:14:32.942Z,8.48
2023-01-22T05:16:59.404Z,9.02
2023-01-22T05:19:26.008Z,10.40
2023-01-22T05:21:52.562Z,10.25
2023-01-22T05:24:19.078Z,10.00
2023-01-22T05:26:45.948Z,10.27
2023-01-22T05:29:12.550Z,10.68
2023-01-22T05:31:39.206Z,10.25
2023-01-22T05:34:05.787Z,10.25
2023-01-22T05:36:32.479Z,10.07
2023-01-22T05:38:59.109Z,9.75
2023-01-22T05:41:25.594Z,10.57
2023-01-22T05:43:52.108Z,10.00
2023-01-22T05:46:18.642Z,10.50
2023-01-22T05:48:45.178Z,9.90
2023-01-22T05:51:11.805Z,9.50
2023-01-22T05:53:38.350Z,8.63
2023-01-22T05:56:06.302Z,10.52
2023-01-22T05:58:33.024Z,9.10
2023-01-22T06:00:59.582Z,8.95
2023-01-22T06:03:26.167Z,9.10
2023-01-22T06:06:00.814Z,8.85
2023-01-22T06:08:28.383Z,10.43
2023-01-22T06:11:01.870Z,10.05
2023-01-22T06:13:28.517Z,9.63
2023-01-22T06:15:55.178Z,10.57
2023-01-22T06:18:22.893Z,8.60
2023-01-22T06:20:49.574Z,8.63
2023-01-22T06:23:16.400Z,10.32
2023-01-22T06:25:43.383Z,9.55
2023-01-22T06:28:10.306Z,9.63
2023-01-22T06:30:37.240Z,9.43
2023-01-22T06:33:04.272Z,9.25
2023-01-22T06:35:30.761Z,9.52
2023-01-22T06:37:57.238Z,10.38
2023-01-22T06:40:23.822Z,9.93
2023-01-22T06:42:50.325Z,9.63
2023-01-22T06:45:16.904Z,10.68
2023-01-22T06:47:44.178Z,8.73
2023-01-22T06:50:11.860Z,8.70
2023-01-22T06:52:38.897Z,8.48
2023-01-22T06:55:05.711Z,8.40
2023-01-22T06:57:32.263Z,8.73
2023-01-22T06:59:59.196Z,8.70
2023-01-22T07:02:25.682Z,9.05
2023-01-22T07:04:52.323Z,6.60
2023-01-22T07:07:18.813Z,9.60
2023-01-22T07:09:45.270Z,8.80
2023-01-22T07:12:11.787Z,9.20
2023-01-22T07:14:38.318Z,8.82
2023-01-22T07:17:04.917Z,8.65
2023-01-22T07:19:31.507Z,8.60
2023-01-22T07:21:58.084Z,9.38
2023-01-22T07:24:24.657Z,8.35
2023-01-22T07:26:51.409Z,8.82
2023-01-22T07:29:17.904Z,8.93
2023-01-22T07:31:47.481Z,8.45
2023-01-22T07:34:16.077Z,10.00
2023-01-22T07:36:42.594Z,8.43
2023-01-22T07:39:09.083Z,8.50
2023-01-22T07:41:35.615Z,7.00
2023-01-22T07:44:02.240Z,7.97
2023-01-22T07:46:28.836Z,8.63
2023-01-22T07:48:55.413Z,8.15
2023-01-22T07:51:22.040Z,8.50
2023-01-22T07:53:48.587Z,8.98
2023-01-22T07:56:15.076Z,9.10
2023-01-22T07:58:41.655Z,9.20
2023-01-22T08:01:08.469Z,9.40
2023-01-22T08:03:35.066Z,9.23
2023-01-22T08:06:01.580Z,8.43
2023-01-22T08:08:28.050Z,8.95
2023-01-22T08:10:58.718Z,8.32
2023-01-22T08:13:25.246Z,8.50
2023-01-22T08:15:51.721Z,8.82
2023-01-22T08:18:20.417Z,9.02
2023-01-22T08:20:48.034Z,8.02
2023-01-22T08:23:14.753Z,8.88
2023-01-22T08:25:41.233Z,7.10
2023-01-22T08:28:07.864Z,9.30
2023-01-22T08:30:45.432Z,7.25
2023-01-22T08:33:12.891Z,8.07
2023-01-22T08:35:39.629Z,8.75
2023-01-22T08:38:06.179Z,7.80
2023-01-22T08:40:32.698Z,9.15
2023-01-22T08:42:59.257Z,9.15
2023-01-22T08:45:25.800Z,9.75
2023-01-22T08:47:58.947Z,9.00
2023-01-22T08:50:26.412Z,9.07
2023-01-22T08:52:55.337Z,9.00
2023-01-22T08:55:21.817Z,8.40
2023-01-22T08:57:55.844Z,8.23
2023-01-22T09:00:23.378Z,9.90
2023-01-22T09:02:49.905Z,9.05
2023-01-22T09:05:16.473Z,7.93
2023-01-22T09:07:43.121Z,8.63
2023-01-22T09:10:10.162Z,9.07
2023-01-22T09:12:36.837Z,10.50
2023-01-22T09:15:03.706Z,7.55
2023-01-22T09:17:30.213Z,8.05
2023-01-22T09:19:56.722Z,7.85
2023-01-22T09:22:23.260Z,9.07
2023-01-22T09:24:49.735Z,7.57
2023-01-22T09:27:16.225Z,8.70
2023-01-22T09:29:42.830Z,8.35
2023-01-22T09:32:09.378Z,7.78
2023-01-22T09:34:35.838Z,8.10
2023-01-22T09:37:02.320Z,9.00
2023-01-22T09:39:28.896Z,8.55
2023-01-22T09:41:58.666Z,9.88
2023-01-22T09:44:35.863Z,8.85
2023-01-22T09:47:11.550Z,8.45
2023-01-22T09:49:59.560Z,8.40
2023-01-22T09:52:29.305Z,8.27
2023-01-22T09:54:56.431Z,7.55
2023-01-22T09:57:31.673Z,7.07
2023-01-22T09:59:58.766Z,8.77
2023-01-22T10:02:37.907Z,9.15
2023-01-22T10:05:19.592Z,8.98
2023-01-22T10:08:05.474Z,9.48
2023-01-22T10:10:33.019Z,8.32
2023-01-22T10:13:19.382Z,9.50
2023-01-22T10:15:47.079Z,9.93
2023-01-22T10:18:30.957Z,9.63
2023-01-22T10:21:00.480Z,10.02
2023-01-22T10:23:27.256Z,9.88
2023-01-22T10:25:59.700Z,9.55
2023-01-22T10:28:28.089Z,9.07
2023-01-22T10:30:54.937Z,8.80
2023-01-22T10:33:23.757Z,8.85
2023-01-22T10:35:52.693Z,8.82
2023-01-22T10:38:27.370Z,8.65
2023-01-22T10:41:03.155Z,9.82
2023-01-22T10:43:37.925Z,8.70
2023-01-22T10:46:24.204Z,8.60
2023-01-22T10:49:01.778Z,8.88
2023-01-22T10:51:34.550Z,11.05
2023-01-22T10:54:01.309Z,12.57
2023-01-22T10:56:34.736Z,10.05
2023-01-22T10:59:23.021Z,9.27
2023-01-22T11:01:57.410Z,13.82
2023-01-22T11:04:29.563Z,9.77
2023-01-22T11:07:04.774Z,10.38
2023-01-22T11:09:41.565Z,9.15
2023-01-22T11:12:16.853Z,8.25
2023-01-22T11:14:45.705Z,9.85
2023-01-22T11:17:23.549Z,9.07
2023-01-22T11:20:11.421Z,9.35
2023-01-22T11:22:43.313Z,10.02
2023-01-22T11:25:11.495Z,10.40
2023-01-22T11:28:04.205Z,8.65
2023-01-22T11:30:56.168Z,8.70
2023-01-22T11:33:48.761Z,9.65
2023-01-22T11:36:40.121Z,8.07
2023-01-22T11:39:29.285Z,9.18
2023-01-22T11:42:08.604Z,8.98
2023-01-22T11:44:41.046Z,8.90
2023-01-22T11:47:13.092Z,8.52
2023-01-22T11:50:14.460Z,10.32
2023-01-22T11:52:44.121Z,8.85
2023-01-22T11:55:41.529Z,9.48
2023-01-22T11:58:33.347Z,9.70
2023-01-22T12:01:09.249Z,10.90
2023-01-22T12:03:55.479Z,10.50
2023-01-22T12:06:24.864Z,9.85
2023-01-22T12:09:19.551Z,8.85
2023-01-22T12:11:58.649Z,9.45
2023-01-22T12:15:03.054Z,8.70
2023-01-22T12:17:38.457Z,9.32
2023-01-22T12:20:04.978Z,9.20
2023-01-22T12:22:52.014Z,8.68
2023-01-22T12:25:39.545Z,9.70
2023-01-22T12:28:13.647Z,10.35
2023-01-22T12:31:02.178Z,9.52
2023-01-22T12:33:36.094Z,9.35
2023-01-22T12:36:05.119Z,10.52
2023-01-22T12:38:50.373Z,8.80
2023-01-22T12:41:50.928Z,9.82
2023-01-22T12:44:27.984Z,9.00
2023-01-22T12:47:03.879Z,9.63
2023-01-22T12:49:30.451Z,9.05
2023-01-22T12:51:57.204Z,10.27
2023-01-22T12:54:26.600Z,10.20
2023-01-22T12:56:57.652Z,10.10
2023-01-22T12:59:48.331Z,13.07
2023-01-22T13:02:27.025Z,12.80
2023-01-22T13:04:54.605Z,11.60
2023-01-22T13:07:38.186Z,8.25
2023-01-22T13:10:24.988Z,11.20
2023-01-22T13:12:54.621Z,9.93
2023-01-22T13:15:25.853Z,8.77
2023-01-22T13:18:07.706Z,9.63
2023-01-22T13:23:05.993Z,8.10
2023-01-22T13:25:33.515Z,8.65
2023-01-22T13:28:00.699Z,10.00
2023-01-22T13:30:29.172Z,9.57
2023-01-22T13:33:15.900Z,9.75
2023-01-22T13:35:44.247Z,10.75
2023-01-22T13:38:19.837Z,9.25
2023-01-22T13:40:51.512Z,10.43
2023-01-22T13:43:20.318Z,10.57
2023-01-22T13:45:46.843Z,8.90
2023-01-22T13:48:18.891Z,9.38
2023-01-22T13:51:06.894Z,9.18
2023-01-22T13:53:43.584Z,9.55
2023-01-22T13:56:18.070Z,9.50
2023-01-22T13:58:49.484Z,9.70
2023-01-22T14:01:34.244Z,9.48
2023-01-22T14:04:06.404Z,9.15
2023-01-22T14:06:47.425Z,8.98
2023-01-22T14:09:44.998Z,9.95
2023-01-22T14:12:19.882Z,9.32
2023-01-22T14:14:47.209Z,8.93
2023-01-22T14:17:31.815Z,9.68
2023-01-22T14:19:58.670Z,8.50
2023-01-22T14:22:25.644Z,10.77
2023-01-22T14:24:52.323Z,9.95
2023-01-22T14:27:25.494Z,9.13
2023-01-22T14:29:54.134Z,9.85
2023-01-22T14:32:20.878Z,9.82
2023-01-22T14:34:47.465Z,10.65
2023-01-22T14:37:17.841Z,10.50
2023-01-22T14:42:11.020Z,9.07
2023-01-22T14:44:37.544Z,10.30
2023-01-22T14:47:04.144Z,9.00
2023-01-22T14:49:31.100Z,9.43
2023-01-22T14:51:57.863Z,9.82
2023-01-22T14:54:24.420Z,8.68
2023-01-22T14:56:50.982Z,10.30
2023-01-22T14:59:19.469Z,10.15
2023-01-22T15:01:47.277Z,9.30
2023-01-22T15:04:13.950Z,10.20
2023-01-22T15:06:40.510Z,11.52
2023-01-22T15:09:07.056Z,9.73
2023-01-22T15:11:33.620Z,10.30
2023-01-22T15:14:00.166Z,9.73
2023-01-22T15:16:26.809Z,9.55
2023-01-22T15:18:54.759Z,10.20
2023-01-22T15:21:21.381Z,9.63
2023-01-22T15:23:48.077Z,9.50
2023-01-22T15:26:25.476Z,9.10
2023-01-22T15:28:52.163Z,9.23
2023-01-22T15:31:18.676Z,9.52
2023-01-22T15:33:45.412Z,9.32
2023-01-22T15:36:12.020Z,9.63
2023-01-22T15:38:38.703Z,9.13
2023-01-22T15:41:07.449Z,8.57
2023-01-22T15:43:34.300Z,10.25
2023-01-22T15:46:00.845Z,10.45
2023-01-22T15:48:27.376Z,10.23
2023-01-22T15:50:53.871Z,8.88
2023-01-22T15:53:20.374Z,10.70
2023-01-22T15:55:50.395Z,9.95
2023-01-22T15:58:16.898Z,10.57
2023-01-22T16:00:43.515Z,10.77
2023-01-22T16:03:13.025Z,10.68
2023-01-22T16:05:39.585Z,10.30
2023-01-22T16:08:06.121Z,10.38
2023-01-22T16:10:34.595Z,10.65
2023-01-22T16:13:01.174Z,11.05
2023-01-22T16:15:27.797Z,10.82
2023-01-22T16:17:54.877Z,12.15
2023-01-22T16:20:21.642Z,11.23
2023-01-22T16:22:48.255Z,11.07
2023-01-22T16:25:17.817Z,11.38
2023-01-22T16:27:44.694Z,10.65
2023-01-22T16:30:12.520Z,9.77
2023-01-22T16:32:39.406Z,11.52
2023-01-22T16:35:06.382Z,11.35
2023-01-22T16:37:32.959Z,10.55
2023-01-22T16:39:59.557Z,10.20
2023-01-22T16:42:26.149Z,13.77
2023-01-22T16:44:55.549Z,11.95
2023-01-22T16:47:22.061Z,12.13
2023-01-22T16:49:48.625Z,11.48
2023-01-22T16:52:22.448Z,12.10
2023-01-22T16:54:50.099Z,10.52
2023-01-22T16:57:17.881Z,11.55
2023-01-22T16:59:44.411Z,12.40
2023-01-22T17:02:16.254Z,11.55
2023-01-22T17:04:43.375Z,12.35
2023-01-22T17:07:20.460Z,14.00
2023-01-22T17:09:54.378Z,14.88
2023-01-22T17:12:20.942Z,14.02
2023-01-22T17:14:47.406Z,15.70
2023-01-22T17:17:13.952Z,20.38
2023-01-22T17:19:40.515Z,15.43
2023-01-22T17:22:06.998Z,13.55
2023-01-22T17:24:33.547Z,14.00
2023-01-22T17:27:00.047Z,12.63
2023-01-22T17:29:26.581Z,12.98
2023-01-22T17:31:53.205Z,11.95
2023-01-22T17:34:19.843Z,11.38
2023-01-22T17:36:46.379Z,10.43
2023-01-22T17:39:15.543Z,10.45
2023-01-22T17:41:42.507Z,11.20
2023-01-22T17:44:09.466Z,12.20
2023-01-22T17:46:36.349Z,12.00
2023-01-22T17:49:03.375Z,12.32
2023-01-22T17:51:31.321Z,12.70
2023-01-22T17:53:59.737Z,12.93
2023-01-22T17:56:30.364Z,12.52
2023-01-22T17:58:59.881Z,12.32
2023-01-22T18:01:28.651Z,12.30
2023-01-22T18:04:00.899Z,16.00
2023-01-22T18:06:27.990Z,14.35
2023-01-22T18:08:55.297Z,13.50
2023-01-22T18:11:24.748Z,13.57
2023-01-22T18:13:51.262Z,11.13
2023-01-22T18:16:18.833Z,12.90
2023-01-22T18:18:45.511Z,12.60
2023-01-22T18:21:15.314Z,12.70
2023-01-22T18:23:42.942Z,14.65
2023-01-22T18:26:10.117Z,11.93
2023-01-22T18:28:36.920Z,13.98
2023-01-22T18:31:15.523Z,13.32
2023-01-22T18:33:43.471Z,12.13
2023-01-22T18:36:13.304Z,13.77
2023-01-22T18:38:40.419Z,14.50
2023-01-22T18:41:09.196Z,15.52
2023-01-22T18:43:35.988Z,13.50
2023-01-22T18:46:05.422Z,14.77
2023-01-22T18:48:32.086Z,16.50
2023-01-22T18:50:58.673Z,16.23
2023-01-22T18:53:25.449Z,14.25
2023-01-22T18:55:52.007Z,15.13
2023-01-22T18:58:18.553Z,15.90
2023-01-22T19:00:45.053Z,14.70
2023-01-22T19:03:11.565Z,14.55
2023-01-22T19:05:39.347Z,16.48
2023-01-22T19:08:05.891Z,14.20
2023-01-22T19:10:32.405Z,13.52
2023-01-22T19:12:59.120Z,13.50
2023-01-22T19:15:25.678Z,11.88
2023-01-22T19:17:52.154Z,14.07
2023-01-22T19:20:18.700Z,14.07
2023-01-22T19:22:45.216Z,12.75
2023-01-22T19:25:11.693Z,11.65
2023-01-22T19:27:38.202Z,13.02
2023-01-22T19:30:06.012Z,11.95
2023-01-22T19:32:32.584Z,13.88
2023-01-22T19:34:59.149Z,12.27
2023-01-22T19:37:27.502Z,12.15
2023-01-22T19:39:54.025Z,11.40
2023-01-22T19:42:20.537Z,13.02
2023-01-22T19:44:47.130Z,12.10
2023-01-22T19:47:13.690Z,12.75
2023-01-22T19:49:40.264Z,14.82
2023-01-22T19:52:06.818Z,13.60
2023-01-22T19:54:34.437Z,12.48
2023-01-22T19:57:00.968Z,12.43
2023-01-22T19:59:27.497Z,12.90
2023-01-22T20:01:54.220Z,12.85
2023-01-22T20:04:26.550Z,13.70
2023-01-22T20:06:58.897Z,12.70
2023-01-22T20:09:25.497Z,14.38
2023-01-22T20:11:53.890Z,15.50
2023-01-22T20:14:28.258Z,13.00
2023-01-22T20:16:54.915Z,15.70
2023-01-22T20:19:21.452Z,13.38
2023-01-22T20:21:48.469Z,13.32
2023-01-22T20:24:15.184Z,14.65
2023-01-22T20:26:41.673Z,12.93
2023-01-22T20:29:08.228Z,13.57
2023-01-22T20:31:34.780Z,13.52
2023-01-22T20:34:01.321Z,12.95
2023-01-22T20:36:27.945Z,13.27
2023-01-22T20:38:54.833Z,14.18
2023-01-22T20:41:23.091Z,13.65
2023-01-22T20:43:49.645Z,14.25
2023-01-22T20:46:18.945Z,15.10
2023-01-22T20:48:46.295Z,13.05
2023-01-22T20:51:16.011Z,13.13
2023-01-22T20:53:43.409Z,13.80
2023-01-22T20:56:19.512Z,14.02
2023-01-22T20:58:46.000Z,13.65
2023-01-22T21:01:16.463Z,14.07
2023-01-22T21:03:43.780Z,13.75
2023-01-22T21:06:14.144Z,14.52
2023-01-22T21:08:42.198Z,15.35
2023-01-22T21:11:12.144Z,14.10
2023-01-22T21:13:39.107Z,13.50
2023-01-22T21:16:15.163Z,13.70
2023-01-22T21:18:42.474Z,13.10
2023-01-22T21:21:17.895Z,14.20
2023-01-22T21:23:46.361Z,13.45
2023-01-22T21:26:14.630Z,13.45
2023-01-22T21:28:41.576Z,14.38
2023-01-22T21:31:13.790Z,13.90
2023-01-22T21:33:40.795Z,14.02
2023-01-22T21:36:08.836Z,13.57
2023-01-22T21:38:35.930Z,13.70
2023-01-22T21:41:10.819Z,13.35
2023-01-22T21:43:37.384Z,12.82
2023-01-22T21:46:04.110Z,14.57
2023-01-22T21:48:30.721Z,13.20
2023-01-22T21:50:57.241Z,12.43
2023-01-22T21:53:23.732Z,14.85
2023-01-22T21:55:52.017Z,12.98
2023-01-22T21:58:19.423Z,13.23
2023-01-22T22:00:45.958Z,12.95
2023-01-22T22:03:12.519Z,13.40
2023-01-22T22:05:38.998Z,13.52
2023-01-22T22:08:06.356Z,12.63
2023-01-22T22:10:32.902Z,12.60
2023-01-22T22:12:59.482Z,13.48
2023-01-22T22:15:26.226Z,11.95
2023-01-22T22:17:52.720Z,13.68
2023-01-22T22:20:19.764Z,13.52
2023-01-22T22:22:46.526Z,12.13
2023-01-22T22:25:13.081Z,13.05
2023-01-22T22:27:39.582Z,13.32
2023-01-22T22:30:06.767Z,13.90
2023-01-22T22:32:33.316Z,12.57
2023-01-22T22:34:59.846Z,13.40
2023-01-22T22:37:26.339Z,14.25
2023-01-22T22:39:52.864Z,12.35
2023-01-22T22:42:19.404Z,13.18
2023-01-22T22:44:45.895Z,13.57
2023-01-22T22:47:12.398Z,11.93
2023-01-22T22:49:38.904Z,14.10
2023-01-22T22:52:05.431Z,12.32
2023-01-22T22:54:31.922Z,13.32
2023-01-22T22:56:58.404Z,13.88
2023-01-22T22:59:26.273Z,13.82
2023-01-22T23:01:52.848Z,13.25
2023-01-22T23:04:19.399Z,12.82
2023-01-22T23:06:46.759Z,14.48
2023-01-22T23:09:16.344Z,14.07
2023-01-22T23:11:43.301Z,13.80
2023-01-22T23:14:10.160Z,13.43
2023-01-22T23:16:40.134Z,13.95
2023-01-22T23:19:11.589Z,15.10
2023-01-22T23:21:38.084Z,13.70
2023-01-22T23:24:04.952Z,13.98
2023-01-22T23:26:31.481Z,14.00
2023-01-22T23:29:01.451Z,12.40
2023-01-22T23:31:30.075Z,14.18
2023-01-22T23:33:57.297Z,12.65
2023-01-22T23:36:24.422Z,14.10
2023-01-22T23:38:50.988Z,13.90
2023-01-22T23:41:19.253Z,13.98
2023-01-22T23:43:46.198Z,15.70
2023-01-22T23:46:15.618Z,13.80
2023-01-22T23:48:42.554Z,15.57
2023-01-22T23:51:10.244Z,15.70
2023-01-22T23:53:38.339Z,13.38
2023-01-22T23:56:05.566Z,14.88
2023-01-22T23:58:32.921Z,15.32
